Impacts TAF Board INFO
FOR SITUATIONAL AWARENESS. NOT TO BE USED FOR FLIGHT PLANNING PURPOSES.
IDs:

KCSG - Columbus Arpt, GA, US

Issued at 2330 UTC 24 Feb 2018
Updated at 0156 UTC 25 Feb 2018
Potential Impact None Slight Moderate High
Time0151Z 25/02Z 25/03Z 25/04Z 25/05Z 25/06Z 25/07Z 25/08Z 25/09Z 25/10Z 25/11Z 25/12Z 25/13Z 25/14Z>>
Type OBS PRVL PRVL PRVL PRVL PRVL PRVL PRVL
  [TEMP]  
PRVL
  [TEMP]  
PRVL
  [TEMP]  
PRVL
  [TEMP]  
PRVL PRVL PRVL
VIS 10 >6 >6 >6 >6 >6 >6 >6 >6 >6 >6 >6 >6 >6
CIG -- 90 90 90 90 90 12 12
  [9]  
12
  [9]  
12
  [9]  
12
  [9]  
12 12 12
Cover CLR BKN BKN BKN BKN BKN BKN BKN
  [BKN]  
BKN
  [BKN]  
BKN
  [BKN]  
BKN
  [BKN]  
BKN BKN BKN
FltCat VFR VFR VFR VFR VFR VFR MVFR MVFR
  [IFR]  
MVFR
  [IFR]  
MVFR
  [IFR]  
MVFR
  [IFR]  
MVFR MVFR MVFR
WX -- -- -- -- -- -- -- --
  [--]  
--
  [--]  
--
  [--]  
--
  [--]  
-- -- --
WDir 230 220 220 220 220 220 200 200
[200]
200
[200]
200
[200]
200
[200]
200 200 200
WSpd 9 10 10 10 10 10 7 7
  [7]  
7
  [7]  
7
  [7]  
7
  [7]  
7 7 7
WGst -- -- -- -- -- -- -- --
  [--]  
--
  [--]  
--
  [--]  
--
  [--]  
-- -- --

Raw TAF
KCSG 242330Z 2500/2524 22010KT P6SM SCT050 BKN090
  FM250700 20007KT P6SM SCT009 BKN012
  TEMPO 2508/2512 BKN009
  FM251500 21009KT P6SM OVC012
  FM251700 24009KT 6SM SHRA OVC025
  PROB30 2518/2522 4SM TSRA OVC007CB


Raw METAR
KCSG 250151Z AUTO 23009KT 10SM CLR 24/14 A3007 RMK AO2 SLP179 T02390144
KCSG 250051Z AUTO 21007KT 10SM BKN060 25/14 A3005 RMK AO2 SLP173 T02500144
KCSG 242351Z AUTO 23005KT 10SM CLR 25/14 A3003 RMK AO2 SLP165 T02500144 10289 20250 56006
KCSG 242251Z 22010KT 10SM BKN080 BKN095 27/14 A3003 RMK AO2 SLP166 T02670139

METAR Board
Radar Display
Forecast Discussion

FOR SITUATIONAL AWARENESS. NOT TO BE USED FOR FLIGHT PLANNING PURPOSES.